Time;durP1;ratioP1;P1;durP2;ratioP2;P2;SDS_P1;SDS_P2;PMS_P1;PMS_P2;Temp;Humidity;BMP_temperature;BMP_pressure;BME280_temperature;BME280_humidity;BME280_pressure;Samples;Min_cycle;Max_cycle;Signal;HPM_P1;HPM_P2
2023/06/05 00:02:22;;;;;;;;;;;;;;;22.44;43.33;101701.72;5005134;28;4111;-68
2023/06/05 00:04:48;;;;;;;;;;;;;;;22.42;43.39;101705.25;5005535;28;4207;-67
2023/06/05 00:07:15;;;;;;;;;;;;;;;22.45;43.12;101703.97;5006733;28;4034;-68
2023/06/05 00:09:41;;;;;;;;;;;;;;;22.44;43.42;101707.50;5006466;28;4402;-68
2023/06/05 00:12:08;;;;;;;;;;;;;;;22.44;43.29;101708.22;5001916;28;4106;-68
2023/06/05 00:14:35;;;;;;;;;;;;;;;22.43;43.36;101712.53;5001566;28;4207;-68
2023/06/05 00:17:03;;;;;;;;;;;;;;;22.41;43.22;101709.53;5005526;28;4187;-67
2023/06/05 00:19:30;;;;;;;;;;;;;;;22.41;43.41;101712.41;5006048;28;4211;-68
2023/06/05 00:21:57;;;;;;;;;;;;;;;22.41;43.42;101715.31;5006095;28;4497;-67
2023/06/05 00:24:24;;;;;;;;;;;;;;;22.41;43.44;101714.56;5005309;28;3938;-68
2023/06/05 00:26:50;;;;;;;;;;;;;;;22.38;43.21;101717.34;5005723;28;4190;-67
2023/06/05 00:29:17;;;;;;;;;;;;;;;22.39;43.37;101723.84;5002841;28;4144;-68
2023/06/05 00:31:43;;;;;;;;;;;;;;;22.40;43.40;101724.59;5021538;28;4044;-68
2023/06/05 00:34:10;;;;;;;;;;;;;;;22.39;43.38;101718.09;5010475;28;4204;-68
2023/06/05 00:36:36;;;;;;;;;;;;;;;22.37;43.47;101715.09;5002070;28;4049;-68
2023/06/05 00:39:03;;;;;;;;;;;;;;;22.37;43.42;101720.84;5005570;28;4131;-68
2023/06/05 00:41:30;;;;;;;;;;;;;;;22.36;43.17;101713.59;5002095;28;4269;-68
2023/06/05 00:43:56;;;;;;;;;;;;;;;22.36;43.46;101716.50;5001204;28;4180;-68
2023/06/05 00:46:23;;;;;;;;;;;;;;;22.36;43.33;101719.38;5003021;28;4353;-68
2023/06/05 00:48:50;;;;;;;;;;;;;;;22.34;43.35;101717.13;5003791;28;4484;-68
2023/06/05 00:51:16;;;;;;;;;;;;;;;22.34;43.10;101710.59;5003398;28;4474;-68
2023/06/05 00:53:44;;;;;;;;;;;;;;;22.34;43.15;101716.38;5001997;28;4105;-68
2023/06/05 00:56:11;;;;;;;;;;;;;;;22.33;43.19;101709.09;5000508;28;4341;-68
2023/06/05 00:58:37;;;;;;;;;;;;;;;22.33;43.35;101709.09;5000780;28;4223;-68
2023/06/05 01:01:04;;;;;;;;;;;;;;;22.32;43.18;101705.47;5009760;28;4134;-67
2023/06/05 01:03:33;;;;;;;;;;;;;;;22.31;43.32;101712.66;5019613;28;4048;-68
2023/06/05 01:06:03;;;;;;;;;;;;;;;22.32;43.36;101713.38;5003673;28;4171;-67
2023/06/05 01:08:30;;;;;;;;;;;;;;;22.30;43.36;101710.38;5002931;28;4245;-68
2023/06/05 01:10:57;;;;;;;;;;;;;;;22.29;43.45;101709.66;5006766;28;5168;-67
2023/06/05 01:13:26;;;;;;;;;;;;;;;22.29;43.01;101706.78;4998795;28;4055;-68
2023/06/05 01:15:54;;;;;;;;;;;;;;;22.29;43.35;101703.13;5002702;28;4175;-68
2023/06/05 01:18:22;;;;;;;;;;;;;;;22.29;43.10;101700.25;5003324;28;4082;-68
2023/06/05 01:20:48;;;;;;;;;;;;;;;22.29;43.34;101703.13;4997236;28;4555;-67
2023/06/05 01:23:15;;;;;;;;;;;;;;;22.28;43.29;101708.16;5001018;28;4191;-68
2023/06/05 01:25:41;;;;;;;;;;;;;;;22.28;43.19;101704.50;5003146;28;3980;-68
2023/06/05 01:28:10;;;;;;;;;;;;;;;22.27;43.29;101703.03;4981949;28;4207;-67
2023/06/05 01:30:52;;;;;;;;;;;;;;;22.27;43.20;101700.88;4998563;28;4183;-68
2023/06/05 01:33:24;;;;;;;;;;;;;;;22.28;43.25;101701.63;5004186;28;4404;-67
2023/06/05 01:35:51;;;;;;;;;;;;;;;22.26;43.08;101704.41;5008423;28;4221;-67
2023/06/05 01:38:18;;;;;;;;;;;;;;;22.26;43.31;101701.53;4983263;28;4169;-67
2023/06/05 01:40:44;;;;;;;;;;;;;;;22.26;43.16;101701.53;5000714;28;4471;-67
2023/06/05 01:43:11;;;;;;;;;;;;;;;22.25;43.38;101702.91;5000070;28;4366;-68
2023/06/05 01:45:40;;;;;;;;;;;;;;;22.24;43.07;101696.41;5009410;28;4208;-68
2023/06/05 01:48:08;;;;;;;;;;;;;;;22.24;43.03;101693.53;5005202;28;4164;-67
2023/06/05 01:50:36;;;;;;;;;;;;;;;22.24;43.21;101701.41;5001132;28;4169;-68
2023/06/05 01:53:03;;;;;;;;;;;;;;;22.24;43.12;101701.41;5003080;28;4144;-68
2023/06/05 01:55:29;;;;;;;;;;;;;;;22.22;43.18;101699.19;5001981;28;4197;-68
2023/06/05 01:57:55;;;;;;;;;;;;;;;22.23;43.26;101700.66;4999691;28;4028;-67
2023/06/05 02:00:22;;;;;;;;;;;;;;;22.21;43.20;101703.44;5007821;28;4105;-66
2023/06/05 02:02:49;;;;;;;;;;;;;;;22.22;43.34;101704.19;4999083;28;4365;-70
2023/06/05 02:05:16;;;;;;;;;;;;;;;22.21;43.16;101697.69;5001271;28;4210;-70
2023/06/05 02:07:53;;;;;;;;;;;;;;;22.21;43.18;101691.13;5002677;28;4176;-71
2023/06/05 02:10:19;;;;;;;;;;;;;;;22.20;43.13;101693.28;5007406;28;4005;-70
2023/06/05 02:12:46;;;;;;;;;;;;;;;22.21;43.29;101691.91;5015278;28;4108;-70
2023/06/05 02:15:13;;;;;;;;;;;;;;;22.20;43.32;101692.53;5003149;28;4482;-71
2023/06/05 02:17:44;;;;;;;;;;;;;;;22.20;43.25;101681.00;5004690;28;4149;-70
2023/06/05 02:20:12;;;;;;;;;;;;;;;22.18;42.87;101679.50;5003318;28;4432;-71
2023/06/05 02:22:41;;;;;;;;;;;;;;;22.17;43.18;101678.00;5009919;28;3914;-70
2023/06/05 02:25:07;;;;;;;;;;;;;;;22.18;43.23;101678.75;5004221;28;4163;-71
2023/06/05 02:27:34;;;;;;;;;;;;;;;22.18;42.97;101676.59;5002106;28;4195;-70
2023/06/05 02:30:00;;;;;;;;;;;;;;;22.18;43.09;101676.59;5008995;28;4265;-70
2023/06/05 02:32:28;;;;;;;;;;;;;;;22.17;43.15;101675.13;5019197;28;4082;-70
2023/06/05 02:34:56;;;;;;;;;;;;;;;22.16;43.10;101672.88;5003552;28;4203;-70
2023/06/05 02:37:24;;;;;;;;;;;;;;;22.16;43.24;101659.19;5010683;28;4226;-70
2023/06/05 02:39:51;;;;;;;;;;;;;;;22.16;43.02;101672.88;5010172;28;4235;-70
2023/06/05 02:42:18;;;;;;;;;;;;;;;22.16;43.13;101669.97;5000239;28;4131;-70
2023/06/05 02:44:45;;;;;;;;;;;;;;;22.14;43.25;101670.63;5007485;28;5816;-70
2023/06/05 02:47:12;;;;;;;;;;;;;;;22.15;43.16;101674.25;5003805;28;4086;-70
2023/06/05 02:49:39;;;;;;;;;;;;;;;22.13;43.15;101669.13;5003505;28;4191;-71
2023/06/05 02:52:06;;;;;;;;;;;;;;;22.14;43.24;101676.38;5009986;28;4054;-71
2023/06/05 02:54:32;;;;;;;;;;;;;;;22.13;43.12;101669.13;5004380;28;5759;-70
2023/06/05 02:57:05;;;;;;;;;;;;;;;22.13;43.07;101663.38;5001531;28;4529;-70
2023/06/05 02:59:31;;;;;;;;;;;;;;;22.13;42.92;101656.84;5008261;28;4341;-70
2023/06/05 03:01:59;;;;;;;;;;;;;;;22.11;42.96;101660.38;5011859;28;4387;-70
2023/06/05 03:04:27;;;;;;;;;;;;;;;22.11;42.99;101660.38;5005926;28;4168;-70
2023/06/05 03:06:56;;;;;;;;;;;;;;;22.11;43.04;101665.41;5008940;28;4028;-70
2023/06/05 03:09:24;;;;;;;;;;;;;;;22.10;43.17;101670.41;5007680;28;4077;-70
2023/06/05 03:11:52;;;;;;;;;;;;;;;22.10;42.80;101663.91;5023083;28;4058;-70
2023/06/05 03:14:19;;;;;;;;;;;;;;;22.11;42.88;101668.28;5004294;28;4113;-70
2023/06/05 03:16:45;;;;;;;;;;;;;;;22.09;42.92;101656.63;5005967;28;4147;-69
2023/06/05 03:19:14;;;;;;;;;;;;;;;22.10;43.08;101663.91;5006526;28;4437;-71
2023/06/05 03:21:43;;;;;;;;;;;;;;;22.09;42.90;101668.91;5003909;28;4083;-71
2023/06/05 03:24:15;;;;;;;;;;;;;;;22.08;42.74;101655.13;5007284;28;7229;-71
2023/06/05 03:26:46;;;;;;;;;;;;;;;22.08;43.01;101655.91;5009487;28;4057;-69
2023/06/05 03:29:12;;;;;;;;;;;;;;;22.07;42.83;101663.03;5009061;28;4121;-70
2023/06/05 03:31:39;;;;;;;;;;;;;;;22.08;43.10;101660.91;5012290;28;4368;-71
2023/06/05 03:34:06;;;;;;;;;;;;;;;22.07;43.05;101665.94;5006205;28;4806;-70
2023/06/05 03:36:34;;;;;;;;;;;;;;;22.07;42.90;101668.81;5008853;28;4322;-70
2023/06/05 03:39:04;;;;;;;;;;;;;;;22.07;42.85;101668.06;5006311;28;4042;-70
2023/06/05 03:41:30;;;;;;;;;;;;;;;22.07;42.88;101668.06;5002507;28;4233;-70
2023/06/05 03:43:57;;;;;;;;;;;;;;;22.06;43.06;101673.09;5002861;28;4136;-70
2023/06/05 03:46:23;;;;;;;;;;;;;;;22.05;42.80;101665.81;5012061;28;3966;-70
2023/06/05 03:48:59;;;;;;;;;;;;;;;22.05;42.92;101665.81;5010732;28;4230;-70
2023/06/05 03:51:29;;;;;;;;;;;;;;;22.06;43.02;101669.44;5011522;28;5080;-71
2023/06/05 03:53:58;;;;;;;;;;;;;;;22.05;42.95;101665.81;5008641;28;4193;-70
2023/06/05 03:56:28;;;;;;;;;;;;;;;22.05;42.77;101662.19;5013617;28;4211;-71
2023/06/05 03:58:58;;;;;;;;;;;;;;;22.03;42.98;101659.94;4977203;28;4743;-70
2023/06/05 04:01:25;;;;;;;;;;;;;;;22.02;42.98;101670.00;5005138;28;4577;-70
2023/06/05 04:03:51;;;;;;;;;;;;;;;22.03;43.05;101668.59;5019093;28;4190;-70
2023/06/05 04:06:18;;;;;;;;;;;;;;;22.02;42.78;101670.00;5004360;28;4155;-71
2023/06/05 04:08:45;;;;;;;;;;;;;;;22.03;42.94;101674.34;5003815;28;4086;-71
2023/06/05 04:11:11;;;;;;;;;;;;;;;22.03;42.81;101670.72;5002805;28;4325;-71
2023/06/05 04:13:39;;;;;;;;;;;;;;;22.03;42.68;101671.47;5008654;28;4268;-71
2023/06/05 04:16:05;;;;;;;;;;;;;;;22.02;43.06;101670.00;5011346;28;4195;-71
2023/06/05 04:18:32;;;;;;;;;;;;;;;22.00;42.67;101675.66;5010029;28;4199;-70
2023/06/05 04:20:59;;;;;;;;;;;;;;;22.02;42.98;101680.78;5012012;28;4173;-71
2023/06/05 04:23:25;;;;;;;;;;;;;;;22.01;43.07;101680.03;5010868;28;4408;-71
2023/06/05 04:25:54;;;;;;;;;;;;;;;22.01;42.80;101685.78;5004445;28;4472;-70
2023/06/05 04:28:22;;;;;;;;;;;;;;;22.00;42.85;101687.19;5003619;28;4244;-71
2023/06/05 04:30:50;;;;;;;;;;;;;;;22.00;42.91;101681.41;5014614;28;4206;-70
2023/06/05 04:33:18;;;;;;;;;;;;;;;21.99;43.04;101677.06;4997795;28;4172;-71
2023/06/05 04:35:45;;;;;;;;;;;;;;;22.00;43.03;101677.78;5005154;28;4239;-71
2023/06/05 04:38:11;;;;;;;;;;;;;;;21.99;43.15;101676.28;5013598;28;5001;-71
2023/06/05 04:40:41;;;;;;;;;;;;;;;21.99;42.84;101677.06;5003695;28;4526;-71
2023/06/05 04:43:08;;;;;;;;;;;;;;;21.99;43.20;101682.06;4999105;28;4129;-71
2023/06/05 04:45:35;;;;;;;;;;;;;;;21.01;42.51;101683.22;5004826;28;4276;-70
2023/06/05 04:48:01;;;;;;;;;;;;;;;20.24;43.00;101680.19;5002813;28;4309;-70
2023/06/05 04:50:29;;;;;;;;;;;;;;;19.78;43.40;101681.72;5004297;28;4237;-70
2023/06/05 04:53:03;;;;;;;;;;;;;;;19.76;43.15;101678.72;5000377;28;4483;-70
2023/06/05 04:55:31;;;;;;;;;;;;;;;19.67;43.07;101675.28;5010136;28;4018;-71
2023/06/05 04:58:00;;;;;;;;;;;;;;;19.77;43.16;101674.44;4998928;28;3961;-70
2023/06/05 05:00:29;;;;;;;;;;;;;;;19.67;42.94;101671.69;4998434;28;4402;-71
2023/06/05 05:02:57;;;;;;;;;;;;;;;19.59;43.12;101665.44;5007461;28;4191;-71
2023/06/05 05:05:24;;;;;;;;;;;;;;;19.63;42.84;101666.44;5004811;28;4283;-70
2023/06/05 05:07:53;;;;;;;;;;;;;;;19.61;42.92;101674.94;4999318;28;4144;-70
2023/06/05 05:10:23;;;;;;;;;;;;;;;19.65;42.77;101668.69;5010469;28;4115;-69
2023/06/05 05:12:50;;;;;;;;;;;;;;;19.65;43.01;101668.69;5003793;28;4174;-69
2023/06/05 05:15:16;;;;;;;;;;;;;;;19.64;43.29;101670.81;5003364;28;4022;-69
2023/06/05 05:17:44;;;;;;;;;;;;;;;19.72;43.14;101661.97;5009027;28;4038;-69
2023/06/05 05:20:11;;;;;;;;;;;;;;;19.80;43.40;101661.72;4999158;28;4604;-71
2023/06/05 05:22:38;;;;;;;;;;;;;;;19.88;43.43;101673.72;5003013;28;4359;-69
2023/06/05 05:25:04;;;;;;;;;;;;;;;19.89;43.69;101683.84;5006353;28;4013;-69
2023/06/05 05:27:31;;;;;;;;;;;;;;;19.81;44.02;101680.47;5005603;28;4273;-69
2023/06/05 05:29:57;;;;;;;;;;;;;;;19.81;43.80;101668.97;5005120;28;4156;-69
2023/06/05 05:32:24;;;;;;;;;;;;;;;19.83;43.74;101683.47;5002110;28;4149;-69
2023/06/05 05:34:51;;;;;;;;;;;;;;;19.89;43.80;101675.22;5011205;28;4164;-69
2023/06/05 05:37:18;;;;;;;;;;;;;;;19.98;43.98;101676.47;5003626;28;4072;-70
2023/06/05 05:39:44;;;;;;;;;;;;;;;19.97;43.69;101675.69;5010131;28;4095;-69
2023/06/05 05:42:11;;;;;;;;;;;;;;;20.09;43.66;101682.22;5009411;28;4267;-69
2023/06/05 05:44:37;;;;;;;;;;;;;;;20.16;43.09;101682.56;5001435;28;4147;-69
2023/06/05 05:47:04;;;;;;;;;;;;;;;20.18;42.91;101686.31;5001901;28;4372;-69
2023/06/05 05:49:30;;;;;;;;;;;;;;;20.20;42.48;101683.56;5003276;28;4179;-69
2023/06/05 05:51:57;;;;;;;;;;;;;;;20.16;42.37;101679.69;4998693;28;4341;-69
2023/06/05 05:54:26;;;;;;;;;;;;;;;20.36;42.20;101686.66;5004845;28;4149;-71
2023/06/05 05:56:53;;;;;;;;;;;;;;;20.78;41.10;101684.81;5004415;28;4190;-69
2023/06/05 05:59:20;;;;;;;;;;;;;;;20.91;41.00;101692.00;5005579;28;4043;-68
2023/06/05 06:01:47;;;;;;;;;;;;;;;20.84;40.20;101699.53;5012964;28;4175;-70
2023/06/05 06:04:15;;;;;;;;;;;;;;;20.86;40.70;101702.53;5009496;28;4244;-70
2023/06/05 06:06:42;;;;;;;;;;;;;;;20.81;40.29;101700.81;5002610;28;4215;-70
2023/06/05 06:09:09;;;;;;;;;;;;;;;20.93;39.92;101700.75;5006055;28;5221;-70
2023/06/05 06:11:38;;;;;;;;;;;;;;;20.99;39.32;101709.03;5006258;28;4047;-70
2023/06/05 06:14:04;;;;;;;;;;;;;;;21.12;39.37;101702.56;5007434;28;4511;-70
2023/06/05 06:16:31;;;;;;;;;;;;;;;21.06;39.62;101702.22;5006812;28;4057;-71
2023/06/05 06:18:58;;;;;;;;;;;;;;;21.16;38.99;101704.91;5000589;28;4122;-71
2023/06/05 06:21:26;;;;;;;;;;;;;;;21.27;38.84;101704.84;5008445;28;4187;-72
2023/06/05 06:23:52;;;;;;;;;;;;;;;21.21;39.02;101698.78;5000528;28;5000;-72
2023/06/05 06:26:19;;;;;;;;;;;;;;;21.30;38.75;101694.97;5006675;28;5165;-72
2023/06/05 06:28:46;;;;;;;;;;;;;;;21.12;38.11;101694.69;5006696;28;4169;-70
2023/06/05 06:31:13;;;;;;;;;;;;;;;21.16;38.43;101697.03;5005896;28;4198;-74
2023/06/05 06:33:40;;;;;;;;;;;;;;;21.30;38.39;101703.59;4999722;28;4386;-69
2023/06/05 06:36:06;;;;;;;;;;;;;;;21.15;38.59;101704.19;4997542;28;4234;-64
2023/06/05 06:38:32;;;;;;;;;;;;;;;21.01;38.61;101707.00;5004965;28;4123;-69
2023/06/05 06:40:59;;;;;;;;;;;;;;;20.92;38.61;101705.78;5001560;28;5016;-69
2023/06/05 06:43:25;;;;;;;;;;;;;;;20.97;38.63;101711.78;5001778;28;4789;-66
2023/06/05 06:46:04;;;;;;;;;;;;;;;21.01;38.70;101712.00;5002257;28;4267;-70
2023/06/05 06:48:32;;;;;;;;;;;;;;;21.09;38.39;101712.47;4994125;28;4177;-65
2023/06/05 06:50:59;;;;;;;;;;;;;;;21.33;38.42;101705.19;5001007;28;4457;-68
2023/06/05 06:53:26;;;;;;;;;;;;;;;21.44;38.30;101702.91;5002805;28;4198;-68
2023/06/05 06:55:52;;;;;;;;;;;;;;;21.58;37.94;101705.81;5005441;28;4426;-68
2023/06/05 06:58:19;;;;;;;;;;;;;;;21.74;37.44;101709.59;5009120;28;3986;-68
2023/06/05 07:00:45;;;;;;;;;;;;;;;21.69;37.39;101708.63;5006964;28;4372;-68
2023/06/05 07:03:12;;;;;;;;;;;;;;;21.80;37.85;101712.06;5005889;28;4229;-70
2023/06/05 07:05:38;;;;;;;;;;;;;;;21.74;37.60;101710.34;5007464;28;4097;-69
2023/06/05 07:08:05;;;;;;;;;;;;;;;21.79;37.94;101716.34;5003143;28;4399;-69
2023/06/05 07:10:31;;;;;;;;;;;;;;;21.68;37.77;101712.88;5005116;28;4284;-70
2023/06/05 07:12:58;;;;;;;;;;;;;;;21.80;37.69;101712.06;5008938;28;4071;-69
2023/06/05 07:15:24;;;;;;;;;;;;;;;21.74;37.81;101709.59;5008304;28;4233;-69
2023/06/05 07:17:51;;;;;;;;;;;;;;;21.70;37.77;101709.38;5009230;28;3979;-69
2023/06/05 07:20:17;;;;;;;;;;;;;;;21.88;37.41;101706.75;5009213;28;4148;-70
2023/06/05 07:22:45;;;;;;;;;;;;;;;22.02;38.17;101709.63;5006537;28;4133;-70
2023/06/05 07:25:13;;;;;;;;;;;;;;;22.10;37.01;101712.94;5008391;28;4298;-70
2023/06/05 07:27:40;;;;;;;;;;;;;;;22.15;37.47;101706.75;5006530;28;4140;-70
2023/06/05 07:30:08;;;;;;;;;;;;;;;22.15;36.29;101706.75;5003652;28;4157;-74
2023/06/05 07:32:34;;;;;;;;;;;;;;;22.04;35.70;101707.59;5007425;28;4170;-69
2023/06/05 07:35:00;;;;;;;;;;;;;;;21.94;35.89;101713.59;5004576;28;4059;-74
2023/06/05 07:37:27;;;;;;;;;;;;;;;21.82;35.85;101712.16;5005648;28;4013;-75
2023/06/05 07:39:54;;;;;;;;;;;;;;;21.80;36.01;101706.28;5001189;28;4287;-75
2023/06/05 07:42:20;;;;;;;;;;;;;;;21.74;36.52;101704.59;5001814;28;4177;-68
2023/06/05 07:44:48;;;;;;;;;;;;;;;21.77;37.51;101713.34;5008450;28;4381;-67
2023/06/05 07:47:15;;;;;;;;;;;;;;;21.78;36.48;101703.28;5007667;28;4145;-70
2023/06/05 07:49:41;;;;;;;;;;;;;;;21.75;35.99;101706.06;5002703;28;4067;-67
2023/06/05 07:52:08;;;;;;;;;;;;;;;21.80;35.26;101709.19;5004664;28;4036;-67
2023/06/05 07:54:34;;;;;;;;;;;;;;;21.78;35.77;101703.28;5012873;28;4066;-68
2023/06/05 07:57:04;;;;;;;;;;;;;;;21.79;36.34;101701.94;5005640;28;4157;-67
2023/06/05 07:59:32;;;;;;;;;;;;;;;21.72;36.00;101695.09;5001099;28;4333;-67
2023/06/05 08:01:59;;;;;;;;;;;;;;;21.74;36.10;101695.94;5008213;28;4545;-67
2023/06/05 08:04:27;;;;;;;;;;;;;;;21.78;35.32;101704.03;5004833;28;4246;-75
2023/06/05 08:06:54;;;;;;;;;;;;;;;21.84;35.12;101706.50;5004282;28;4121;-68
2023/06/05 08:09:21;;;;;;;;;;;;;;;21.85;35.17;101703.00;5012459;28;4259;-74
2023/06/05 08:11:48;;;;;;;;;;;;;;;21.88;35.03;101706.75;5009902;28;4054;-73
2023/06/05 08:14:14;;;;;;;;;;;;;;;21.84;35.15;101698.59;5000992;28;4070;-74
2023/06/05 08:16:41;;;;;;;;;;;;;;;21.81;34.56;101690.50;5002774;28;4055;-74
2023/06/05 08:19:07;;;;;;;;;;;;;;;21.83;34.44;101687.69;5005956;28;4930;-73
2023/06/05 08:21:34;;;;;;;;;;;;;;;21.89;33.58;101685.16;5003289;28;4056;-74
2023/06/05 08:24:00;;;;;;;;;;;;;;;21.91;34.61;101693.91;5005248;28;4039;-78
2023/06/05 08:26:27;;;;;;;;;;;;;;;22.27;33.76;101692.22;5005308;28;4141;-75
2023/06/05 08:28:53;;;;;;;;;;;;;;;22.46;33.71;101681.63;5005262;28;4236;-77
2023/06/05 08:31:20;;;;;;;;;;;;;;;22.34;34.14;101681.75;5003521;28;4184;-71
2023/06/05 08:33:46;;;;;;;;;;;;;;;22.57;34.61;101687.25;5008583;28;4706;-70
2023/06/05 08:36:13;;;;;;;;;;;;;;;22.64;34.91;101684.69;5005520;28;3996;-75
2023/06/05 08:38:39;;;;;;;;;;;;;;;22.38;35.12;101687.75;5008304;28;4032;-74
2023/06/05 08:41:10;;;;;;;;;;;;;;;22.63;35.87;101674.53;5000571;28;4485;-70
2023/06/05 08:43:37;;;;;;;;;;;;;;;22.65;35.52;101678.25;4994362;28;4128;-71
2023/06/05 08:46:04;;;;;;;;;;;;;;;22.64;36.08;101679.66;5007311;28;4027;-70
2023/06/05 08:48:31;;;;;;;;;;;;;;;22.65;36.88;101680.41;5003586;28;4197;-70
2023/06/05 08:50:58;;;;;;;;;;;;;;;22.64;36.66;101676.78;5001162;28;4234;-73
2023/06/05 08:53:26;;;;;;;;;;;;;;;22.72;36.65;101673.53;5010729;28;4026;-72
2023/06/05 08:55:53;;;;;;;;;;;;;;;22.76;36.50;101673.72;5003924;28;4198;-73
2023/06/05 08:58:20;;;;;;;;;;;;;;;22.69;36.85;101663.28;5006316;28;4144;-73
2023/06/05 09:00:48;;;;;;;;;;;;;;;22.80;36.58;101668.16;4994883;28;3984;-69
2023/06/05 09:03:18;;;;;;;;;;;;;;;22.75;36.75;101667.22;5008652;28;4094;-70
2023/06/05 09:05:44;;;;;;;;;;;;;;;22.76;37.02;101662.19;5005673;28;4223;-71
2023/06/05 09:08:11;;;;;;;;;;;;;;;22.78;37.24;101665.19;5002847;28;3900;-70
2023/06/05 09:10:37;;;;;;;;;;;;;;;22.75;37.45;101660.72;5003960;28;4272;-73
2023/06/05 09:13:04;;;;;;;;;;;;;;;22.73;37.60;101669.25;5003657;28;3977;-70
2023/06/05 09:15:31;;;;;;;;;;;;;;;22.72;37.15;101665.63;5013687;28;4488;-70
2023/06/05 09:18:10;;;;;;;;;;;;;;;22.68;37.82;101664.69;5000397;28;4515;-72
2023/06/05 09:20:38;;;;;;;;;;;;;;;22.55;37.75;101660.44;5003419;28;4199;-76
2023/06/05 09:23:21;;;;;;;;;;;;;;;22.57;38.22;101669.94;5002599;28;4463;-74
2023/06/05 09:25:52;;;;;;;;;;;;;;;22.92;37.83;101668.75;5004100;28;3997;-69
2023/06/05 09:28:18;;;;;;;;;;;;;;;22.85;37.90;101669.84;5005086;28;4602;-74
2023/06/05 09:30:57;;;;;;;;;;;;;;;22.95;37.77;101678.25;5009399;28;4096;-72
2023/06/05 09:33:24;;;;;;;;;;;;;;;22.83;37.68;101671.91;5000854;28;4145;-73
2023/06/05 09:36:03;;;;;;;;;;;;;;;22.74;38.28;101667.84;5000249;28;4037;-72
2023/06/05 09:38:30;;;;;;;;;;;;;;;22.69;37.98;101657.50;5007642;28;4189;-74
2023/06/05 09:41:06;;;;;;;;;;;;;;;22.73;38.29;101651.94;5009452;28;4605;-72
2023/06/05 09:43:33;;;;;;;;;;;;;;;22.82;38.28;101653.09;5004509;28;4129;-73
2023/06/05 09:46:06;;;;;;;;;;;;;;;22.86;38.10;101654.03;5000290;28;4288;-71
2023/06/05 09:48:33;;;;;;;;;;;;;;;22.84;37.94;101653.94;5001124;28;4036;-74
2023/06/05 09:51:09;;;;;;;;;;;;;;;22.80;37.69;101650.84;5007741;28;4607;-71
2023/06/05 09:53:37;;;;;;;;;;;;;;;22.79;38.14;101655.09;5011752;28;3918;-70
2023/06/05 09:56:04;;;;;;;;;;;;;;;22.84;38.28;101656.81;5011642;28;5103;-72
2023/06/05 09:58:30;;;;;;;;;;;;;;;22.93;38.25;101647.16;5010616;28;4194;-71
2023/06/05 10:01:00;;;;;;;;;;;;;;;22.96;38.34;101640.06;5011163;28;4148;-71
2023/06/05 10:03:26;;;;;;;;;;;;;;;22.91;38.47;101638.38;5008816;28;4021;-75
2023/06/05 10:05:52;;;;;;;;;;;;;;;23.05;38.16;101635.47;5008169;28;4289;-74
2023/06/05 10:08:27;;;;;;;;;;;;;;;23.15;38.04;101623.63;5006006;28;4674;-70
2023/06/05 10:10:53;;;;;;;;;;;;;;;23.15;38.03;101624.38;5001717;28;4129;-70
2023/06/05 10:13:19;;;;;;;;;;;;;;;23.26;37.74;101625.59;5004871;28;4239;-71
2023/06/05 10:15:46;;;;;;;;;;;;;;;23.19;37.91;101626.72;4995342;28;4054;-74
2023/06/05 10:18:13;;;;;;;;;;;;;;;23.09;38.41;101618.31;5004905;28;4195;-74
2023/06/05 10:20:39;;;;;;;;;;;;;;;23.05;38.38;101629.69;5015910;28;4192;-75
2023/06/05 10:23:06;;;;;;;;;;;;;;;23.04;38.08;101610.84;5002040;28;4166;-74
2023/06/05 10:25:32;;;;;;;;;;;;;;;23.02;38.37;101618.66;5009270;28;4090;-70
2023/06/05 10:28:05;;;;;;;;;;;;;;;23.02;38.69;101607.88;5009799;28;4344;-72
2023/06/05 10:30:34;;;;;;;;;;;;;;;23.10;38.38;101595.97;5010069;28;4168;-75
2023/06/05 10:33:19;;;;;;;;;;;;;;;23.21;38.72;101600.81;5008655;28;4152;-70
2023/06/05 10:35:47;;;;;;;;;;;;;;;23.13;38.86;101603.31;5000270;28;4169;-72
2023/06/05 10:38:13;;;;;;;;;;;;;;;23.24;38.90;101593.72;5003164;28;4590;-73
2023/06/05 10:40:39;;;;;;;;;;;;;;;23.20;38.92;101611.63;5001107;28;4076;-73
2023/06/05 10:43:25;;;;;;;;;;;;;;;23.44;38.09;101604.72;4999326;28;4974;-71
2023/06/05 10:45:51;;;;;;;;;;;;;;;23.65;37.95;101607.13;5000146;28;4090;-69
2023/06/05 10:48:52;;;;;;;;;;;;;;;23.63;38.06;101598.34;4997062;28;4132;-70
2023/06/05 10:51:37;;;;;;;;;;;;;;;23.64;38.24;101588.31;5007861;28;4095;-70
2023/06/05 10:54:05;;;;;;;;;;;;;;;23.32;38.38;101594.09;5000616;28;5024;-68
2023/06/05 10:56:50;;;;;;;;;;;;;;;23.31;38.64;101589.72;5001347;28;4146;-72
2023/06/05 10:59:17;;;;;;;;;;;;;;;23.28;38.72;101579.47;5010496;28;4295;-70
2023/06/05 11:01:43;;;;;;;;;;;;;;;23.26;39.14;101585.16;5005705;28;4132;-71
2023/06/05 11:04:11;;;;;;;;;;;;;;;23.15;39.12;101586.06;5006612;28;3936;-71
2023/06/05 11:06:37;;;;;;;;;;;;;;;23.40;38.72;101587.94;5006351;28;6077;-69
2023/06/05 11:09:08;;;;;;;;;;;;;;;23.54;38.18;101590.72;5009036;28;4110;-68
2023/06/05 11:12:04;;;;;;;;;;;;;;;23.57;38.20;101586.50;5005402;28;4307;-68
2023/06/05 11:14:48;;;;;;;;;;;;;;;23.56;38.20;101585.03;5001237;28;5048;-68
2023/06/05 11:17:30;;;;;;;;;;;;;;;23.55;38.32;101586.44;5004175;28;4868;-69
2023/06/05 11:19:57;;;;;;;;;;;;;;;23.62;38.29;101583.16;5003947;28;4136;-71
2023/06/05 11:22:25;;;;;;;;;;;;;;;23.68;38.28;101587.72;5009988;28;4565;-70
2023/06/05 11:25:11;;;;;;;;;;;;;;;23.68;38.17;101585.56;5000717;28;4387;-69
2023/06/05 11:27:40;;;;;;;;;;;;;;;23.72;38.08;101576.34;5008569;28;4076;-70
2023/06/05 11:30:11;;;;;;;;;;;;;;;23.72;37.92;101576.34;5003775;28;4223;-72
2023/06/05 11:32:37;;;;;;;;;;;;;;;23.75;38.01;101580.81;5009377;28;4118;-72
2023/06/05 11:35:04;;;;;;;;;;;;;;;23.73;38.07;101572.78;5001297;28;4163;-70
2023/06/05 11:37:34;;;;;;;;;;;;;;;23.73;38.34;101575.69;5011088;28;4177;-70
2023/06/05 11:40:04;;;;;;;;;;;;;;;23.75;38.14;101572.88;5004859;28;4323;-69
2023/06/05 11:42:31;;;;;;;;;;;;;;;23.77;38.19;101567.19;5003474;28;4121;-68
2023/06/05 11:44:57;;;;;;;;;;;;;;;23.69;38.17;101572.63;5005478;28;4148;-70
2023/06/05 11:47:24;;;;;;;;;;;;;;;23.55;38.94;101560.44;5007148;28;3948;-71
2023/06/05 11:49:51;;;;;;;;;;;;;;;23.52;38.92;101553.03;5010160;28;4058;-70
2023/06/05 11:52:18;;;;;;;;;;;;;;;23.44;38.75;101546.91;5009463;28;4201;-71
2023/06/05 11:54:53;;;;;;;;;;;;;;;23.58;39.24;101556.22;5008567;28;4042;-73
2023/06/05 11:57:26;;;;;;;;;;;;;;;23.68;38.75;101547.25;5012123;28;4034;-70
2023/06/05 12:00:07;;;;;;;;;;;;;;;23.85;38.93;101540.06;5005710;28;4154;-70
2023/06/05 12:02:35;;;;;;;;;;;;;;;23.72;38.80;101547.41;5008386;28;5216;-73
2023/06/05 12:05:01;;;;;;;;;;;;;;;23.51;39.07;101542.91;5006965;28;4468;-69
2023/06/05 12:07:28;;;;;;;;;;;;;;;23.57;39.18;101543.16;5006774;28;4189;-69
2023/06/05 12:09:58;;;;;;;;;;;;;;;23.58;39.08;101544.66;4991961;28;4348;-76
2023/06/05 12:12:25;;;;;;;;;;;;;;;23.53;39.23;101532.16;5005805;28;4464;-73
2023/06/05 12:14:54;;;;;;;;;;;;;;;23.62;39.40;101527.50;5003314;28;4359;-69
2023/06/05 12:17:22;;;;;;;;;;;;;;;23.80;39.14;101531.19;5002026;28;4263;-70
2023/06/05 12:19:54;;;;;;;;;;;;;;;23.79;38.59;101535.47;5004383;28;4288;-70
2023/06/05 12:22:20;;;;;;;;;;;;;;;23.69;39.25;101534.28;5003888;28;4098;-72
2023/06/05 12:24:47;;;;;;;;;;;;;;;23.80;39.22;101536.97;5009761;28;4071;-70
2023/06/05 12:27:13;;;;;;;;;;;;;;;23.70;39.17;101544.44;5003589;28;4332;-73
2023/06/05 12:29:52;;;;;;;;;;;;;;;23.65;39.41;101526.16;4997470;28;4815;-70
2023/06/05 12:32:19;;;;;;;;;;;;;;;23.83;39.25;101524.09;5004161;28;4113;-70
2023/06/05 12:34:47;;;;;;;;;;;;;;;23.83;39.26;101523.34;5006587;28;4019;-73
2023/06/05 12:37:29;;;;;;;;;;;;;;;23.83;39.24;101518.31;5006729;28;4123;-72
2023/06/05 12:39:56;;;;;;;;;;;;;;;23.82;39.36;101516.06;5003607;28;4296;-73
2023/06/05 12:42:22;;;;;;;;;;;;;;;23.93;38.16;101520.13;4999640;28;4341;-72
2023/06/05 12:44:49;;;;;;;;;;;;;;;23.90;37.98;101515.69;5003589;28;4089;-71
2023/06/05 12:47:15;;;;;;;;;;;;;;;23.73;37.01;101512.06;5007995;28;4209;-78
2023/06/05 12:49:42;;;;;;;;;;;;;;;23.59;36.79;101500.63;5005388;28;4435;-76
2023/06/05 12:52:08;;;;;;;;;;;;;;;23.82;37.63;101499.47;5003723;28;4249;-71
2023/06/05 12:54:35;;;;;;;;;;;;;;;24.00;37.66;101495.84;5003472;28;4263;-69